Time;durP1;ratioP1;P1;durP2;ratioP2;P2;SDS_P1;SDS_P2;PMS_P1;PMS_P2;Temp;Humidity;BMP_temperature;BMP_pressure;BME280_temperature;BME280_humidity;BME280_pressure;Samples;Min_cycle;Max_cycle;Signal;HPM_P1;HPM_P2
2022/06/04 00:00:44;;;;;;;2.97;2.67;;;;;17.70;101257.00;;;;4997064;28;20238;-67
2022/06/04 00:03:31;;;;;;;4.33;2.70;;;;;17.50;101261.00;;;;5000224;28;20759;-71
2022/06/04 00:06:17;;;;;;;4.13;3.00;;;;;17.50;101264.00;;;;4998036;28;20237;-72
2022/06/04 00:09:05;;;;;;;4.20;2.70;;;;;17.40;101264.00;;;;5003813;28;20237;-73
2022/06/04 00:18:01;;;;;;;4.83;3.03;;;;;17.30;101246.00;;;;4998995;28;20249;-71
2022/06/04 00:20:49;;;;;;;5.73;3.20;;;;;17.20;101249.00;;;;5004079;28;20234;-71
2022/06/04 00:23:35;;;;;;;5.67;2.80;;;;;17.30;101263.00;;;;5003683;28;20727;-71
2022/06/04 00:26:21;;;;;;;5.27;2.87;;;;;17.20;101268.00;;;;4998790;28;20320;-69
2022/06/04 00:29:09;;;;;;;5.90;2.87;;;;;17.10;101268.00;;;;5001728;28;20225;-70
2022/06/04 00:31:55;;;;;;;5.90;3.20;;;;;17.20;101267.00;;;;5004966;28;20345;-72
2022/06/04 00:34:42;;;;;;;6.33;3.17;;;;;17.20;101258.00;;;;5004149;28;20246;-71
2022/06/04 00:37:31;;;;;;;4.03;2.90;;;;;17.10;101257.00;;;;4997745;28;20296;-69
2022/06/04 00:40:28;;;;;;;3.33;2.77;;;;;17.00;101252.00;;;;4999090;28;20234;-70
2022/06/04 00:43:15;;;;;;;3.30;2.77;;;;;17.10;101230.00;;;;4997563;28;20326;-70
2022/06/04 00:46:47;;;;;;;4.97;2.70;;;;;17.20;101258.00;;;;4999418;28;20338;-68
2022/06/04 00:49:35;;;;;;;4.53;2.80;;;;;17.00;101258.00;;;;5000581;28;20237;-72
2022/06/04 00:52:24;;;;;;;5.23;3.20;;;;;17.00;101252.00;;;;5003644;28;20730;-70
2022/06/04 00:55:12;;;;;;;4.43;3.00;;;;;16.90;101239.00;;;;5002911;28;20237;-72
2022/06/04 00:58:33;;;;;;;3.37;2.80;;;;;16.80;101255.00;;;;5001378;28;20324;-72
2022/06/04 01:01:24;;;;;;;3.70;2.60;;;;;17.00;101260.00;;;;4922195;29;20415;-72
2022/06/04 01:04:47;;;;;;;5.27;2.77;;;;;16.90;101249.00;;;;5006416;28;20234;-72
2022/06/04 01:07:42;;;;;;;2.97;2.63;;;;;16.90;101265.00;;;;5007612;28;20237;-72
2022/06/04 01:10:43;;;;;;;4.93;3.00;;;;;16.90;101243.00;;;;5006938;28;20228;-70
2022/06/04 01:13:44;;;;;;;5.53;2.97;;;;;16.80;101276.00;;;;5002577;28;20241;-72
2022/06/04 01:16:38;;;;;;;4.43;2.83;;;;;16.80;101267.00;;;;5001853;28;20614;-72
2022/06/04 01:19:53;;;;;;;8.10;3.50;;;;;16.60;101272.00;;;;5005213;28;20236;-72
2022/06/04 01:23:11;;;;;;;4.60;2.70;;;;;16.60;101273.00;;;;5001816;28;20985;-72
2022/06/04 01:26:22;;;;;;;3.83;3.13;;;;;16.50;101288.00;;;;5001517;28;20231;-72
2022/06/04 01:29:13;;;;;;;3.47;2.60;;;;;16.60;101309.00;;;;5007776;28;20237;-72
2022/06/04 01:32:06;;;;;;;4.00;3.03;;;;;16.50;101313.00;;;;5007056;28;20313;-71
2022/06/04 01:35:05;;;;;;;4.17;3.03;;;;;16.50;101310.00;;;;5004025;28;20257;-71
2022/06/04 01:37:57;;;;;;;3.37;2.70;;;;;16.40;101302.00;;;;5007572;28;20233;-72
2022/06/04 01:41:07;;;;;;;3.77;2.73;;;;;16.40;101288.00;;;;5007048;28;20693;-72
2022/06/04 01:43:58;;;;;;;3.33;2.83;;;;;16.20;101291.00;;;;5007824;28;20366;-70
2022/06/04 01:46:46;;;;;;;11.73;3.30;;;;;16.30;101293.00;;;;5006317;28;20260;-70
2022/06/04 01:49:38;;;;;;;4.73;3.07;;;;;16.20;101307.00;;;;4995080;28;20230;-71
2022/06/04 01:52:27;;;;;;;4.93;3.13;;;;;16.10;101310.00;;;;5001541;28;20284;-70
2022/06/04 01:55:19;;;;;;;4.13;3.03;;;;;16.00;101309.00;;;;4998336;28;20232;-71
2022/06/04 01:58:09;;;;;;;5.17;3.13;;;;;16.10;101310.00;;;;5005729;28;20422;-71
2022/06/04 02:01:00;;;;;;;5.77;3.30;;;;;16.10;101317.00;;;;5006231;28;20259;-72
2022/06/04 02:03:50;;;;;;;4.10;3.00;;;;;16.00;101324.00;;;;4980033;28;20240;-71
2022/06/04 02:06:41;;;;;;;4.57;3.37;;;;;15.90;101312.00;;;;5006371;28;20234;-71
2022/06/04 02:09:28;;;;;;;5.33;2.97;;;;;16.00;101314.00;;;;5001160;28;20234;-70
2022/06/04 02:12:14;;;;;;;3.97;3.30;;;;;16.00;101316.00;;;;5005110;28;20237;-70
2022/06/04 02:15:04;;;;;;;3.87;3.20;;;;;15.90;101309.00;;;;5001400;28;20626;-71
2022/06/04 02:17:57;;;;;;;8.27;3.47;;;;;15.90;101312.00;;;;4991624;28;20243;-69
2022/06/04 02:20:43;;;;;;;7.17;3.47;;;;;15.80;101302.00;;;;4997496;28;20386;-72
2022/06/04 02:23:30;;;;;;;4.57;3.30;;;;;15.70;101309.00;;;;4994409;28;20605;-71
2022/06/04 02:26:18;;;;;;;4.97;3.47;;;;;15.70;101289.00;;;;5002689;28;20238;-70
2022/06/04 02:29:05;;;;;;;5.83;3.63;;;;;15.60;101305.00;;;;5004817;28;20308;-71
2022/06/04 02:32:00;;;;;;;8.60;3.30;;;;;15.70;101303.00;;;;5002914;28;20238;-71
2022/06/04 02:34:58;;;;;;;7.10;3.60;;;;;15.80;101300.00;;;;4975184;28;20252;-71
2022/06/04 02:37:56;;;;;;;5.73;3.20;;;;;15.80;101295.00;;;;4986114;28;20243;-70
2022/06/04 02:40:46;;;;;;;4.60;3.47;;;;;15.60;101292.00;;;;5003642;28;20254;-71
2022/06/04 02:43:42;;;;;;;4.40;3.60;;;;;15.60;101295.00;;;;5003306;28;20233;-70
2022/06/04 02:46:34;;;;;;;6.03;3.53;;;;;15.60;101287.00;;;;5004856;28;20231;-70
2022/06/04 02:49:25;;;;;;;5.30;3.87;;;;;15.70;101296.00;;;;4999061;28;20710;-70
2022/06/04 02:52:16;;;;;;;5.00;3.73;;;;;15.60;101287.00;;;;5005887;28;20231;-72
2022/06/04 02:55:08;;;;;;;6.53;3.53;;;;;15.50;101291.00;;;;5004718;28;20849;-72
2022/06/04 02:57:58;;;;;;;4.87;3.50;;;;;15.60;101284.00;;;;5004179;28;20257;-72
2022/06/04 03:00:46;;;;;;;5.13;3.90;;;;;15.50;101284.00;;;;5001202;28;20317;-72
2022/06/04 03:03:34;;;;;;;4.70;3.40;;;;;15.60;101290.00;;;;5000674;28;20342;-70
2022/06/04 03:06:26;;;;;;;4.50;3.50;;;;;15.60;101295.00;;;;4998797;28;20240;-70
2022/06/04 03:09:17;;;;;;;7.70;4.33;;;;;15.50;101282.00;;;;5002336;28;20284;-72
2022/06/04 03:12:04;;;;;;;6.60;4.17;;;;;15.40;101278.00;;;;5005412;28;20237;-71
2022/06/04 03:14:50;;;;;;;5.13;3.23;;;;;15.50;101268.00;;;;5004417;28;20246;-71
2022/06/04 03:17:37;;;;;;;6.70;3.40;;;;;15.50;101258.00;;;;4993702;28;20235;-71
2022/06/04 03:20:25;;;;;;;5.77;4.00;;;;;15.50;101260.00;;;;5001707;28;20378;-71
2022/06/04 03:23:11;;;;;;;7.60;3.70;;;;;15.50;101265.00;;;;4998636;28;20261;-70
2022/06/04 03:25:59;;;;;;;4.70;3.67;;;;;15.30;101258.00;;;;5001153;28;20230;-71
2022/06/04 03:28:45;;;;;;;6.63;3.53;;;;;15.40;101262.00;;;;5006681;28;20808;-71
2022/06/04 03:31:32;;;;;;;6.33;3.63;;;;;15.30;101261.00;;;;4998498;28;20702;-72
2022/06/04 03:34:19;;;;;;;7.60;4.30;;;;;15.30;101251.00;;;;4998196;28;20711;-68
2022/06/04 03:37:05;;;;;;;7.33;3.97;;;;;15.30;101260.00;;;;5004661;28;20294;-70
2022/06/04 03:39:51;;;;;;;5.00;3.93;;;;;15.30;101261.00;;;;5001859;28;20237;-71
2022/06/04 03:42:39;;;;;;;5.40;4.00;;;;;15.30;101259.00;;;;4999672;28;20716;-71
2022/06/04 03:45:26;;;;;;;5.30;4.10;;;;;15.40;101276.00;;;;4997667;28;20706;-71
2022/06/04 03:48:13;;;;;;;7.60;4.00;;;;;15.50;101270.00;;;;5003965;28;20594;-69
2022/06/04 03:50:59;;;;;;;6.70;4.10;;;;;15.30;101267.00;;;;5004014;28;20273;-70
2022/06/04 03:53:45;;;;;;;5.27;4.03;;;;;15.40;101273.00;;;;5005959;28;20231;-71
2022/06/04 03:56:32;;;;;;;6.00;4.17;;;;;15.30;101255.00;;;;5003567;28;20639;-71
2022/06/04 03:59:19;;;;;;;6.87;3.77;;;;;15.30;101250.00;;;;5005526;28;20230;-71
2022/06/04 04:02:24;;;;;;;6.40;4.20;;;;;15.30;101257.00;;;;4995793;28;20856;-71
2022/06/04 04:05:13;;;;;;;6.13;3.73;;;;;15.20;101262.00;;;;5001381;28;20221;-70
2022/06/04 04:08:01;;;;;;;6.87;4.10;;;;;15.30;101264.00;;;;5001361;28;20281;-70
2022/06/04 04:10:48;;;;;;;6.53;4.10;;;;;15.30;101282.00;;;;5003957;28;21018;-71
2022/06/04 04:13:34;;;;;;;6.57;4.40;;;;;15.40;101290.00;;;;5000130;28;20231;-72
2022/06/04 04:16:23;;;;;;;6.43;4.13;;;;;15.50;101284.00;;;;5004857;28;20237;-70
2022/06/04 04:19:09;;;;;;;5.87;3.70;;;;;15.50;101286.00;;;;5002402;28;20330;-70
2022/06/04 04:21:56;;;;;;;8.63;4.37;;;;;15.60;101252.00;;;;5002682;28;20706;-70
2022/06/04 04:24:42;;;;;;;7.23;3.83;;;;;15.40;101301.00;;;;5001699;28;20237;-71
2022/06/04 04:27:28;;;;;;;7.40;3.90;;;;;15.40;101298.00;;;;5000163;28;20301;-70
2022/06/04 04:30:18;;;;;;;8.20;3.97;;;;;15.40;101297.00;;;;5002431;28;20234;-71
2022/06/04 04:33:07;;;;;;;5.97;4.10;;;;;15.60;101287.00;;;;5004295;28;20246;-70
2022/06/04 04:35:54;;;;;;;4.90;3.80;;;;;15.50;101295.00;;;;5002978;28;20245;-72
2022/06/04 04:38:40;;;;;;;5.67;4.03;;;;;15.40;101291.00;;;;5004337;28;20313;-71
2022/06/04 04:41:27;;;;;;;8.53;3.70;;;;;15.50;101300.00;;;;4997715;28;20221;-70
2022/06/04 04:44:13;;;;;;;7.93;4.10;;;;;15.50;101304.00;;;;5003304;28;20238;-71
2022/06/04 04:47:00;;;;;;;7.53;4.00;;;;;15.60;101295.00;;;;5004474;28;20290;-71
2022/06/04 04:49:48;;;;;;;6.93;3.83;;;;;15.40;101306.00;;;;5002300;28;20374;-71
2022/06/04 04:52:34;;;;;;;5.00;3.70;;;;;15.40;101296.00;;;;4993325;28;20223;-72
2022/06/04 04:55:21;;;;;;;6.07;4.00;;;;;15.50;101315.00;;;;4996393;28;20358;-71
2022/06/04 04:58:07;;;;;;;5.47;4.07;;;;;15.60;101304.00;;;;5004863;28;20826;-71
2022/06/04 05:00:54;;;;;;;4.27;3.50;;;;;15.70;101315.00;;;;5001013;28;20234;-72
2022/06/04 05:03:40;;;;;;;6.03;3.63;;;;;15.70;101319.00;;;;4994974;28;20237;-72
2022/06/04 05:06:28;;;;;;;7.30;3.97;;;;;15.60;101333.00;;;;4989638;28;20755;-71
2022/06/04 05:09:14;;;;;;;6.67;4.13;;;;;15.70;101316.00;;;;5002937;28;20225;-69
2022/06/04 05:12:00;;;;;;;6.40;4.07;;;;;15.70;101320.00;;;;5002635;28;20731;-71
2022/06/04 05:14:47;;;;;;;6.73;3.90;;;;;15.70;101322.00;;;;4999014;28;20232;-71
2022/06/04 05:17:34;;;;;;;7.07;4.07;;;;;15.80;101312.00;;;;4997316;28;20235;-70
2022/06/04 05:20:20;;;;;;;9.23;3.90;;;;;15.80;101314.00;;;;5003451;28;21788;-70
2022/06/04 05:23:07;;;;;;;6.57;4.00;;;;;15.90;101315.00;;;;5004758;28;20236;-71
2022/06/04 05:25:54;;;;;;;6.53;4.13;;;;;16.00;101314.00;;;;4999604;28;20232;-70
2022/06/04 05:28:40;;;;;;;5.67;3.73;;;;;16.00;101326.00;;;;4996874;28;20239;-70
2022/06/04 05:31:26;;;;;;;5.53;3.70;;;;;16.00;101324.00;;;;4996021;28;20357;-73
2022/06/04 05:34:15;;;;;;;6.13;3.67;;;;;16.00;101333.00;;;;5002112;28;20221;-69
2022/06/04 05:37:02;;;;;;;7.30;3.80;;;;;16.10;101314.00;;;;5003595;28;20242;-69
2022/06/04 05:39:50;;;;;;;5.57;3.67;;;;;16.10;101336.00;;;;5003464;28;20367;-70
2022/06/04 05:42:37;;;;;;;6.20;4.37;;;;;16.10;101336.00;;;;5003455;28;20233;-71
2022/06/04 05:45:23;;;;;;;6.47;3.90;;;;;16.00;101325.00;;;;5006696;28;20232;-72
2022/06/04 05:48:09;;;;;;;5.70;4.10;;;;;16.20;101340.00;;;;5007049;28;20286;-72
2022/06/04 05:50:58;;;;;;;6.33;3.87;;;;;16.10;101335.00;;;;4993766;28;20235;-72
2022/06/04 05:53:44;;;;;;;8.10;3.90;;;;;16.10;101352.00;;;;5005075;28;20320;-71
2022/06/04 05:56:35;;;;;;;7.07;4.20;;;;;16.20;101351.00;;;;4999607;28;20228;-71
2022/06/04 05:59:23;;;;;;;5.20;3.40;;;;;16.20;101364.00;;;;5001388;28;20732;-70
2022/06/04 06:02:10;;;;;;;7.77;3.70;;;;;16.30;101370.00;;;;5005483;28;20231;-72
2022/06/04 06:04:56;;;;;;;5.93;3.43;;;;;16.20;101376.00;;;;5007552;28;20275;-70
2022/06/04 06:07:43;;;;;;;6.67;4.30;;;;;16.30;101371.00;;;;5001436;28;20263;-71
2022/06/04 06:10:29;;;;;;;6.33;3.80;;;;;16.30;101377.00;;;;5002415;28;20233;-71
2022/06/04 06:13:17;;;;;;;9.00;4.10;;;;;16.20;101389.00;;;;5007994;28;20692;-71
2022/06/04 06:16:05;;;;;;;6.57;3.80;;;;;16.10;101397.00;;;;5002927;28;20708;-70
2022/06/04 06:18:54;;;;;;;6.83;3.90;;;;;16.20;101386.00;;;;5006024;28;20280;-71
2022/06/04 06:21:41;;;;;;;7.63;4.00;;;;;16.20;101399.00;;;;5001059;28;20240;-71
2022/06/04 06:24:28;;;;;;;5.53;3.97;;;;;16.40;101395.00;;;;5007106;28;20225;-72
2022/06/04 06:27:14;;;;;;;4.83;3.80;;;;;16.50;101397.00;;;;5006611;28;20248;-71
2022/06/04 06:30:02;;;;;;;4.07;3.60;;;;;16.60;101412.00;;;;5005747;28;20739;-71
2022/06/04 06:32:48;;;;;;;5.60;3.83;;;;;16.70;101405.00;;;;5003824;28;20236;-72
2022/06/04 06:35:35;;;;;;;6.27;3.97;;;;;16.70;101411.00;;;;5001294;28;20225;-72
2022/06/04 06:38:21;;;;;;;6.10;4.23;;;;;16.70;101418.00;;;;5007142;28;20355;-70
2022/06/04 06:41:08;;;;;;;7.27;4.13;;;;;16.70;101407.00;;;;5004051;28;20240;-72
2022/06/04 06:43:55;;;;;;;5.73;3.87;;;;;16.60;101400.00;;;;5007211;28;20242;-72
2022/06/04 06:46:45;;;;;;;4.60;3.73;;;;;16.60;101399.00;;;;5006514;28;20266;-71
2022/06/04 06:49:31;;;;;;;5.07;3.70;;;;;16.70;101403.00;;;;4998771;28;20228;-71
2022/06/04 06:52:19;;;;;;;6.70;3.90;;;;;16.70;101399.00;;;;4992463;28;20241;-71
2022/06/04 06:55:06;;;;;;;7.70;4.43;;;;;16.80;101393.00;;;;4990990;28;20233;-74
2022/06/04 06:57:53;;;;;;;7.00;3.77;;;;;16.70;101394.00;;;;4995483;28;20740;-72
2022/06/04 07:00:39;;;;;;;5.60;3.80;;;;;16.80;101404.00;;;;5006167;28;20310;-73
2022/06/04 07:03:27;;;;;;;5.30;4.03;;;;;16.80;101399.00;;;;5000079;28;20610;-72
2022/06/04 07:06:14;;;;;;;5.60;3.50;;;;;16.80;101415.00;;;;5000422;28;20309;-73
2022/06/04 07:09:01;;;;;;;5.13;3.77;;;;;16.80;101392.00;;;;5001886;28;20567;-72
2022/06/04 07:11:48;;;;;;;5.93;3.90;;;;;16.70;101406.00;;;;4997063;28;20240;-73
2022/06/04 07:14:35;;;;;;;4.67;3.57;;;;;16.80;101402.00;;;;5006545;28;20234;-73
2022/06/04 07:17:21;;;;;;;5.90;3.90;;;;;16.60;101391.00;;;;5002695;28;20610;-73
2022/06/04 07:20:11;;;;;;;5.03;3.57;;;;;16.70;101395.00;;;;5004939;28;20737;-72
2022/06/04 07:22:58;;;;;;;5.03;3.87;;;;;16.70;101405.00;;;;5006241;28;20320;-72
2022/06/04 07:25:45;;;;;;;5.37;3.60;;;;;16.90;101401.00;;;;4997766;28;20309;-74
2022/06/04 07:28:32;;;;;;;5.57;4.30;;;;;17.10;101405.00;;;;5005998;28;20727;-70
2022/06/04 07:31:18;;;;;;;5.03;3.80;;;;;17.10;101410.00;;;;5002752;28;20233;-74
2022/06/04 07:34:05;;;;;;;6.80;3.87;;;;;17.10;101402.00;;;;5004638;28;20723;-74
2022/06/04 07:36:53;;;;;;;6.10;3.50;;;;;17.20;101414.00;;;;4993885;28;20245;-70
2022/06/04 07:39:40;;;;;;;4.87;3.87;;;;;17.10;101420.00;;;;4996634;28;20364;-71
2022/06/04 07:42:27;;;;;;;8.80;4.10;;;;;17.30;101417.00;;;;5003415;28;20226;-72
2022/06/04 07:45:14;;;;;;;4.73;3.77;;;;;17.30;101422.00;;;;5004818;28;20261;-71
2022/06/04 07:48:00;;;;;;;5.67;3.90;;;;;17.50;101421.00;;;;4995266;28;20312;-72
2022/06/04 07:50:46;;;;;;;6.43;3.63;;;;;17.50;101421.00;;;;4993338;28;20243;-73
2022/06/04 07:53:34;;;;;;;4.13;3.57;;;;;17.70;101429.00;;;;4999214;28;20226;-72
2022/06/04 07:56:21;;;;;;;4.57;3.50;;;;;17.60;101433.00;;;;4996747;28;22185;-73
2022/06/04 07:59:09;;;;;;;5.20;3.53;;;;;17.70;101441.00;;;;4992823;28;20227;-73
2022/06/04 08:01:56;;;;;;;4.10;3.50;;;;;17.90;101446.00;;;;4998042;28;20242;-73
2022/06/04 08:04:42;;;;;;;5.07;3.60;;;;;18.00;101449.00;;;;4998834;28;20265;-72
2022/06/04 08:07:29;;;;;;;9.47;4.27;;;;;18.20;101450.00;;;;4997934;28;20234;-72
2022/06/04 08:10:16;;;;;;;7.20;3.60;;;;;18.40;101442.00;;;;4999178;28;20295;-72
2022/06/04 08:13:03;;;;;;;8.43;4.20;;;;;18.50;101449.00;;;;4997079;28;20242;-73
2022/06/04 08:15:49;;;;;;;5.50;4.00;;;;;18.70;101458.00;;;;4998589;28;20238;-71
2022/06/04 08:18:36;;;;;;;4.93;3.63;;;;;18.70;101460.00;;;;4998474;28;20285;-72
2022/06/04 08:21:22;;;;;;;6.53;3.60;;;;;18.70;101461.00;;;;5004947;28;20297;-71
2022/06/04 08:24:11;;;;;;;5.40;3.87;;;;;18.50;101446.00;;;;5001943;28;20738;-71
2022/06/04 08:27:02;;;;;;;6.83;3.83;;;;;18.60;101455.00;;;;5001856;28;20751;-70
2022/06/04 08:29:48;;;;;;;5.50;3.60;;;;;18.70;101451.00;;;;4999468;28;20282;-73
2022/06/04 08:32:44;;;;;;;5.10;3.83;;;;;18.90;101452.00;;;;4997780;28;20250;-72
2022/06/04 08:35:30;;;;;;;5.03;3.70;;;;;18.90;101446.00;;;;5002575;28;20237;-73
2022/06/04 08:38:23;;;;;;;4.87;4.03;;;;;18.90;101443.00;;;;5001906;28;20241;-71
2022/06/04 08:41:21;;;;;;;4.57;3.60;;;;;18.90;101453.00;;;;5003567;28;20230;-70
2022/06/04 08:44:17;;;;;;;3.97;3.33;;;;;19.10;101439.00;;;;5003399;28;20313;-71
2022/06/04 08:47:12;;;;;;;7.77;3.97;;;;;19.00;101438.00;;;;5000732;28;20603;-72
2022/06/04 08:50:03;;;;;;;4.53;3.50;;;;;19.00;101438.00;;;;5002807;28;20294;-72
2022/06/04 08:52:52;;;;;;;4.73;3.80;;;;;19.20;101436.00;;;;4998333;28;20234;-70
2022/06/04 08:58:58;;;;;;;5.70;4.07;;;;;19.20;101442.00;;;;5002213;28;20245;-72
2022/06/04 09:01:53;;;;;;;4.47;3.70;;;;;19.00;101444.00;;;;5000604;28;20234;-72
2022/06/04 09:04:51;;;;;;;5.87;3.87;;;;;19.20;101454.00;;;;5009012;28;20230;-74
2022/06/04 09:07:41;;;;;;;6.93;3.97;;;;;19.30;101466.00;;;;5027954;28;20218;-73
2022/06/04 09:10:32;;;;;;;5.00;4.00;;;;;19.50;101474.00;;;;5025300;28;20226;-75
2022/06/04 09:13:25;;;;;;;6.60;4.23;;;;;19.60;101473.00;;;;5027032;28;20644;-74
2022/06/04 09:16:25;;;;;;;6.10;3.57;;;;;19.80;101473.00;;;;5031319;28;20226;-74
2022/06/04 09:19:17;;;;;;;5.40;3.90;;;;;19.80;101467.00;;;;5029167;28;20230;-75
2022/06/04 09:22:11;;;;;;;4.63;4.03;;;;;19.80;101475.00;;;;5031602;28;20230;-75
2022/06/04 09:24:57;;;;;;;6.33;4.27;;;;;19.90;101472.00;;;;5023036;28;20265;-73
2022/06/04 09:27:49;;;;;;;5.53;3.60;;;;;19.80;101465.00;;;;5030920;28;20258;-73
2022/06/04 09:30:40;;;;;;;7.47;3.67;;;;;19.70;101485.00;;;;5020828;28;20238;-74
2022/06/04 09:33:45;;;;;;;6.53;4.27;;;;;19.60;101480.00;;;;5007224;28;20230;-72
2022/06/04 09:36:35;;;;;;;6.73;3.73;;;;;19.60;101482.00;;;;5001181;28;20226;-73
2022/06/04 09:39:25;;;;;;;5.13;3.60;;;;;19.70;101477.00;;;;5007392;28;20226;-72
2022/06/04 09:42:21;;;;;;;6.53;4.50;;;;;20.10;101482.00;;;;5008424;28;20614;-73
2022/06/04 09:45:20;;;;;;;5.90;4.10;;;;;20.00;101483.00;;;;5006704;28;20242;-72
2022/06/04 09:48:15;;;;;;;5.23;3.87;;;;;20.00;101482.00;;;;4999071;28;20233;-73
2022/06/04 09:51:03;;;;;;;6.83;3.97;;;;;20.10;101471.00;;;;4996212;28;20234;-72
2022/06/04 09:53:55;;;;;;;6.50;4.30;;;;;20.10;101465.00;;;;4999216;28;20238;-75
2022/06/04 09:56:44;;;;;;;5.50;3.43;;;;;20.30;101469.00;;;;4998282;28;20370;-73
2022/06/04 09:59:33;;;;;;;7.00;4.00;;;;;20.30;101468.00;;;;5000088;28;20242;-73
2022/06/04 10:02:21;;;;;;;8.00;4.50;;;;;20.50;101473.00;;;;5003118;28;20234;-73
2022/06/04 10:05:20;;;;;;;6.87;3.87;;;;;20.50;101475.00;;;;4994450;28;20589;-74
2022/06/04 10:08:12;;;;;;;6.70;4.27;;;;;20.50;101478.00;;;;5002464;28;20247;-72
2022/06/04 10:11:03;;;;;;;7.87;4.43;;;;;20.50;101471.00;;;;5001053;28;20234;-72
2022/06/04 10:13:51;;;;;;;5.03;3.80;;;;;20.80;101474.00;;;;5004444;28;20361;-72
2022/06/04 10:16:40;;;;;;;5.63;4.00;;;;;21.30;101467.00;;;;4994510;28;20230;-73
2022/06/04 10:19:29;;;;;;;5.33;3.87;;;;;21.80;101471.00;;;;4992563;28;20284;-71
2022/06/04 10:22:15;;;;;;;6.00;3.97;;;;;21.90;101479.00;;;;5001076;28;20285;-72
2022/06/04 10:25:03;;;;;;;8.27;3.63;;;;;22.20;101472.00;;;;4994966;28;20235;-73
2022/06/04 10:28:02;;;;;;;5.50;4.10;;;;;22.40;101469.00;;;;5005101;28;20234;-75
2022/06/04 10:30:56;;;;;;;6.37;4.37;;;;;22.60;101464.00;;;;4979782;28;20636;-74
2022/06/04 10:33:53;;;;;;;4.77;3.57;;;;;22.50;101463.00;;;;5005425;28;20271;-75
2022/06/04 10:36:49;;;;;;;5.07;3.80;;;;;22.90;101472.00;;;;5006016;28;20307;-73
2022/06/04 10:39:45;;;;;;;7.17;4.13;;;;;23.10;101452.00;;;;5000834;28;20313;-73
2022/06/04 10:42:39;;;;;;;4.17;3.60;;;;;23.10;101456.00;;;;4999182;28;20236;-74
2022/06/04 10:45:32;;;;;;;4.83;3.97;;;;;23.00;101463.00;;;;5000112;28;20371;-74
2022/06/04 10:48:35;;;;;;;5.03;3.93;;;;;23.00;101461.00;;;;5002252;28;20232;-74
2022/06/04 10:51:30;;;;;;;4.93;3.90;;;;;23.10;101451.00;;;;5001763;28;20234;-74
2022/06/04 10:54:24;;;;;;;6.53;4.37;;;;;22.90;101451.00;;;;5005451;28;20237;-75
2022/06/04 10:57:25;;;;;;;5.53;4.27;;;;;22.70;101458.00;;;;4998183;28;20256;-74
2022/06/04 11:00:16;;;;;;;5.40;3.30;;;;;22.70;101448.00;;;;4995395;28;20242;-74
2022/06/04 11:03:12;;;;;;;5.23;4.00;;;;;22.80;101458.00;;;;4994390;28;20820;-74
2022/06/04 11:06:05;;;;;;;9.03;3.83;;;;;22.80;101455.00;;;;4999356;28;20302;-73
2022/06/04 11:08:56;;;;;;;7.07;3.87;;;;;22.90;101459.00;;;;4995865;28;20324;-74
2022/06/04 11:11:47;;;;;;;8.30;4.03;;;;;23.00;101469.00;;;;5004019;28;20241;-73
2022/06/04 11:14:41;;;;;;;5.97;4.33;;;;;23.30;101460.00;;;;5005604;28;20233;-73
2022/06/04 11:17:36;;;;;;;4.53;3.80;;;;;23.50;101451.00;;;;5003262;28;20234;-74
2022/06/04 11:20:29;;;;;;;4.10;3.70;;;;;23.50;101454.00;;;;5003703;28;20805;-74
2022/06/04 11:23:25;;;;;;;5.43;3.53;;;;;23.80;101458.00;;;;5005690;28;20222;-70
2022/06/04 11:26:21;;;;;;;5.00;3.83;;;;;24.10;101463.00;;;;4997684;28;20300;-73
2022/06/04 11:29:09;;;;;;;6.00;4.17;;;;;24.10;101466.00;;;;5001125;28;20232;-73
2022/06/04 11:32:07;;;;;;;5.57;3.87;;;;;24.40;101469.00;;;;4991158;28;20222;-72
2022/06/04 11:35:10;;;;;;;6.43;4.10;;;;;24.60;101460.00;;;;4996403;28;20409;-73
2022/06/04 11:38:20;;;;;;;4.17;3.53;;;;;24.80;101464.00;;;;4998427;28;20595;-73
2022/06/04 11:41:21;;;;;;;5.57;3.10;;;;;25.40;101460.00;;;;5003751;28;20360;-74
2022/06/04 11:44:27;;;;;;;6.50;3.57;;;;;25.80;101465.00;;;;4998439;28;20224;-73
2022/06/04 11:47:24;;;;;;;6.33;3.47;;;;;25.70;101463.00;;;;5000544;28;20227;-74
2022/06/04 11:50:18;;;;;;;3.97;3.30;;;;;25.90;101462.00;;;;5004399;28;20225;-74
2022/06/04 11:53:17;;;;;;;3.70;3.20;;;;;26.30;101469.00;;;;4991753;28;20226;-74
2022/06/04 11:56:11;;;;;;;3.67;2.90;;;;;26.70;101463.00;;;;4997427;28;20347;-74
2022/06/04 11:59:21;;;;;;;4.70;3.27;;;;;26.70;101467.00;;;;5000497;28;20233;-72
2022/06/04 12:02:18;;;;;;;3.53;3.20;;;;;26.60;101473.00;;;;5001224;28;20362;-72
2022/06/04 12:05:16;;;;;;;4.23;3.60;;;;;26.80;101467.00;;;;5000244;28;20814;-72
2022/06/04 12:08:07;;;;;;;4.20;2.90;;;;;27.20;101478.00;;;;4996585;28;20233;-73
2022/06/04 12:11:14;;;;;;;4.80;3.50;;;;;27.20;101470.00;;;;4999403;28;20597;-73
2022/06/04 12:14:11;;;;;;;4.53;3.43;;;;;27.30;101469.00;;;;4999882;28;20233;-74
2022/06/04 12:17:11;;;;;;;3.40;3.10;;;;;27.50;101463.00;;;;4992841;28;20591;-73
2022/06/04 12:26:47;;;;;;;5.00;3.00;;;;;27.40;101466.00;;;;5002944;28;20245;-73
2022/06/04 12:29:36;;;;;;;4.18;3.38;;;;;27.40;101463.00;;;;4997073;28;20230;-71
2022/06/04 12:32:29;;;;;;;4.63;2.80;;;;;27.40;101456.00;;;;5002589;28;20233;-75
2022/06/04 12:35:22;;;;;;;3.30;3.00;;;;;27.70;101458.00;;;;5002526;28;20265;-73
2022/06/04 12:38:14;;;;;;;5.55;3.03;;;;;28.00;101464.00;;;;5002747;28;20753;-75
2022/06/04 12:41:13;;;;;;;3.78;3.08;;;;;28.10;101470.00;;;;4998522;28;20230;-74
2022/06/04 12:44:02;;;;;;;3.50;3.20;;;;;28.30;101468.00;;;;4998169;28;20357;-75
2022/06/04 12:46:51;;;;;;;3.55;3.22;;;;;28.30;101459.00;;;;4998536;28;20233;-73
2022/06/04 12:49:46;;;;;;;3.50;3.10;;;;;28.20;101466.00;;;;5005810;28;20219;-74
2022/06/04 12:52:41;;;;;;;3.70;3.30;;;;;28.20;101454.00;;;;5005760;28;20238;-75
2022/06/04 12:55:31;;;;;;;3.45;3.15;;;;;28.40;101461.00;;;;5005515;28;20304;-75
2022/06/04 12:58:30;;;;;;;4.55;2.70;;;;;28.60;101463.00;;;;5006409;28;20722;-74
2022/06/04 13:01:33;;;;;;;3.47;2.85;;;;;29.20;101465.00;;;;5007801;28;20245;-73
2022/06/04 13:04:22;;;;;;;3.83;2.80;;;;;29.40;101468.00;;;;4998900;28;20296;-73
2022/06/04 13:07:20;;;;;;;2.97;2.70;;;;;29.40;101457.00;;;;5005963;28;20284;-73
2022/06/04 13:10:20;;;;;;;3.92;2.85;;;;;28.80;101461.00;;;;4999152;28;20905;-73
2022/06/04 13:13:19;;;;;;;4.35;3.28;;;;;28.90;101457.00;;;;5003198;28;20757;-73
2022/06/04 13:16:17;;;;;;;3.53;2.95;;;;;28.90;101457.00;;;;5008167;28;20261;-74
2022/06/04 13:19:21;;;;;;;3.00;2.70;;;;;29.20;101452.00;;;;5005994;28;20226;-73
2022/06/04 13:22:17;;;;;;;3.10;2.80;;;;;29.20;101468.00;;;;5006817;28;20230;-72
2022/06/04 13:25:11;;;;;;;3.67;3.10;;;;;28.90;101482.00;;;;5001705;28;20214;-73
2022/06/04 13:27:58;;;;;;;5.43;2.88;;;;;28.90;101476.00;;;;4995110;28;20633;-73
2022/06/04 13:30:51;;;;;;;3.10;2.90;;;;;29.60;101463.00;;;;5001939;28;20765;-74
2022/06/04 13:33:37;;;;;;;3.17;2.88;;;;;29.90;101470.00;;;;5006697;28;20225;-73
2022/06/04 13:36:28;;;;;;;3.75;2.90;;;;;30.00;101460.00;;;;5003626;28;20746;-73
2022/06/04 13:39:18;;;;;;;3.90;3.00;;;;;29.70;101450.00;;;;5004190;28;20348;-74
2022/06/04 13:42:15;;;;;;;3.50;3.20;;;;;29.50;101448.00;;;;5000292;28;20221;-74
2022/06/04 13:45:12;;;;;;;4.35;3.20;;;;;29.30;101432.00;;;;5003699;28;20808;-74
2022/06/04 13:48:01;;;;;;;4.50;3.33;;;;;29.70;101439.00;;;;5006997;28;20277;-73
2022/06/04 13:50:50;;;;;;;3.60;3.30;;;;;29.20;101435.00;;;;5005680;28;20599;-72
2022/06/04 13:53:44;;;;;;;3.53;3.10;;;;;29.20;101443.00;;;;4998358;28;20251;-71
2022/06/04 13:56:39;;;;;;;8.85;3.50;;;;;29.50;101437.00;;;;4997365;28;20230;-70
2022/06/04 13:59:29;;;;;;;3.70;3.40;;;;;29.60;101449.00;;;;4996771;28;20238;-71
2022/06/04 14:02:18;;;;;;;5.10;3.40;;;;;29.40;101452.00;;;;4995362;28;20616;-72
2022/06/04 14:08:23;;;;;;;5.18;3.55;;;;;29.70;101458.00;;;;5006226;28;20238;-71
2022/06/04 14:11:24;;;;;;;4.43;3.22;;;;;30.50;101461.00;;;;4999549;28;20329;-70
2022/06/04 14:14:24;;;;;;;4.30;2.97;;;;;30.30;101464.00;;;;5003586;28;20242;-66
2022/06/04 14:17:23;;;;;;;5.53;3.22;;;;;30.90;101454.00;;;;4999044;28;20238;-70
2022/06/04 14:20:17;;;;;;;4.75;3.60;;;;;31.70;101450.00;;;;4998813;28;20785;-69
2022/06/04 14:23:23;;;;;;;3.58;2.80;;;;;32.60;101439.00;;;;4992287;28;20229;-71
2022/06/04 14:26:21;;;;;;;3.83;3.00;;;;;204.60;224519.00;;;;4999315;28;20230;-71